Time;durP1;ratioP1;P1;durP2;ratioP2;P2;SDS_P1;SDS_P2;PMS_P1;PMS_P2;Temp;Humidity;BMP_temperature;BMP_pressure;BME280_temperature;BME280_humidity;BME280_pressure;Samples;Min_cycle;Max_cycle;Signal;HPM_P1;HPM_P2
2022/06/07 00:01:35;;;;;;;3.77;2.80;;;16.80;99.90;;;;;;4196254;28;20202;-80
2022/06/07 00:03:40;;;;;;;4.97;2.87;;;16.70;99.90;;;;;;4179478;28;20199;-80
2022/06/07 00:05:43;;;;;;;5.70;2.93;;;16.80;99.90;;;;;;4196644;28;20197;-80
2022/06/07 00:07:46;;;;;;;4.03;2.90;;;16.80;99.90;;;;;;4204183;28;20260;-81
2022/06/07 00:09:48;;;;;;;3.73;2.70;;;16.80;99.90;;;;;;4181465;28;20793;-80
2022/06/07 00:11:51;;;;;;;3.53;2.57;;;16.80;99.90;;;;;;4192370;28;20297;-81
2022/06/07 00:13:52;;;;;;;4.00;2.67;;;16.80;99.90;;;;;;4188650;28;20218;-80
2022/06/07 00:15:54;;;;;;;5.17;3.17;;;16.80;99.90;;;;;;4186083;28;20650;-80
2022/06/07 00:17:56;;;;;;;4.00;2.77;;;16.80;99.90;;;;;;4188933;28;20233;-81
2022/06/07 00:19:58;;;;;;;4.13;2.40;;;16.80;99.90;;;;;;4173272;28;20664;-81
2022/06/07 00:22:00;;;;;;;4.23;2.50;;;16.80;99.90;;;;;;4190492;28;20284;-81
2022/06/07 00:24:06;;;;;;;5.63;2.50;;;16.70;99.90;;;;;;4170294;28;20214;-81
2022/06/07 00:26:08;;;;;;;3.83;2.70;;;16.70;99.90;;;;;;4166268;28;20217;-80
2022/06/07 00:28:10;;;;;;;3.57;2.73;;;16.70;99.90;;;;;;4170305;28;20231;-81
2022/06/07 00:30:13;;;;;;;5.00;2.57;;;16.70;99.90;;;;;;4193511;28;20211;-80
2022/06/07 00:32:18;;;;;;;3.67;2.20;;;16.70;99.90;;;;;;4186629;28;20221;-81
2022/06/07 00:34:20;;;;;;;5.83;2.60;;;16.70;99.90;;;;;;4177772;28;20239;-81
2022/06/07 00:36:22;;;;;;;2.80;2.47;;;16.70;99.90;;;;;;4181494;28;20746;-81
2022/06/07 00:38:24;;;;;;;2.93;2.60;;;16.70;99.90;;;;;;4190063;28;20211;-81
2022/06/07 00:40:28;;;;;;;3.50;2.40;;;16.70;99.90;;;;;;4193695;28;20233;-81
2022/06/07 00:42:30;;;;;;;2.97;2.10;;;16.70;99.90;;;;;;4192563;28;20213;-81
2022/06/07 00:44:35;;;;;;;3.87;2.53;;;16.70;99.90;;;;;;4187947;28;20234;-81
2022/06/07 00:46:38;;;;;;;3.10;2.33;;;16.70;99.90;;;;;;4188396;28;20210;-81
2022/06/07 00:48:40;;;;;;;3.87;2.73;;;16.60;99.90;;;;;;4181913;28;20211;-81
2022/06/07 00:50:50;;;;;;;3.43;2.70;;;16.60;99.90;;;;;;4185693;28;20241;-81
2022/06/07 00:52:52;;;;;;;4.13;2.60;;;16.60;99.90;;;;;;4183033;28;20275;-80
2022/06/07 00:54:55;;;;;;;2.50;2.27;;;16.60;99.90;;;;;;4182106;28;20248;-81
2022/06/07 00:56:58;;;;;;;4.00;2.40;;;16.60;99.90;;;;;;4178046;28;20321;-82
2022/06/07 00:59:03;;;;;;;6.07;2.77;;;16.60;99.90;;;;;;4191583;28;20217;-82
2022/06/07 01:01:05;;;;;;;5.43;2.37;;;16.60;99.90;;;;;;4177537;28;20232;-82
2022/06/07 01:03:07;;;;;;;3.50;2.50;;;16.60;99.90;;;;;;4188571;28;20206;-82
2022/06/07 01:05:09;;;;;;;3.30;2.87;;;16.60;99.90;;;;;;4190654;28;20301;-82
2022/06/07 01:13:32;;;;;;;3.90;2.50;;;16.60;99.90;;;;;;4184426;28;20253;-81
2022/06/07 01:16:24;;;;;;;3.67;2.70;;;16.60;99.90;;;;;;4185517;28;20282;-82
2022/06/07 01:19:16;;;;;;;3.33;2.87;;;16.50;99.90;;;;;;4182972;28;20209;-82
2022/06/07 01:22:09;;;;;;;5.83;2.93;;;16.50;99.90;;;;;;4187569;28;20230;-82
2022/06/07 01:37:20;;;;;;;3.90;3.00;;;16.40;99.90;;;;;;4184583;28;20210;-82
2022/06/07 01:41:57;;;;;;;4.87;2.90;;;16.30;99.90;;;;;;4185992;28;20209;-82
2022/06/07 01:44:00;;;;;;;6.20;3.23;;;16.30;99.90;;;;;;4186059;28;20229;-82
2022/06/07 01:46:04;;;;;;;6.57;3.13;;;16.30;99.90;;;;;;4165772;28;20543;-82
2022/06/07 01:50:09;;;;;;;6.63;3.87;;;16.30;99.90;;;;;;4175413;28;20303;-82
2022/06/07 01:52:13;;;;;;;4.87;2.93;;;16.30;99.90;;;;;;4177444;28;20218;-82
2022/06/07 01:54:16;;;;;;;5.33;3.37;;;16.30;99.90;;;;;;4176226;28;20237;-82
2022/06/07 01:56:19;;;;;;;6.00;3.40;;;16.30;99.90;;;;;;4177439;28;20215;-83
2022/06/07 01:58:21;;;;;;;4.13;2.93;;;16.30;99.90;;;;;;4159020;28;20230;-82
2022/06/07 02:00:23;;;;;;;4.50;3.20;;;16.30;99.90;;;;;;4159259;28;20245;-82
2022/06/07 02:02:27;;;;;;;6.00;2.83;;;16.30;99.90;;;;;;4159432;28;20199;-81
2022/06/07 02:04:29;;;;;;;3.43;2.50;;;16.30;99.90;;;;;;4160119;28;20318;-83
2022/06/07 02:06:31;;;;;;;6.20;3.03;;;16.30;99.90;;;;;;4168056;28;20268;-82
2022/06/07 02:08:36;;;;;;;4.27;2.90;;;16.30;99.90;;;;;;4159237;28;20231;-82
2022/06/07 02:10:40;;;;;;;4.53;2.93;;;16.20;99.90;;;;;;4177836;28;20399;-82
2022/06/07 02:12:42;;;;;;;3.50;2.70;;;16.20;99.90;;;;;;4177770;28;20271;-81
2022/06/07 02:14:44;;;;;;;3.80;2.80;;;16.20;99.90;;;;;;4159193;28;20236;-81
2022/06/07 02:16:46;;;;;;;4.23;3.07;;;16.20;99.90;;;;;;4156088;28;20211;-81
2022/06/07 02:18:48;;;;;;;4.50;3.00;;;16.20;99.90;;;;;;4177313;28;20792;-81
2022/06/07 02:20:50;;;;;;;5.27;3.20;;;16.30;99.90;;;;;;4159298;28;20214;-82
2022/06/07 02:22:52;;;;;;;4.47;3.20;;;16.20;99.90;;;;;;4159356;28;20712;-81
2022/06/07 02:24:54;;;;;;;5.57;3.20;;;16.20;99.90;;;;;;4159076;28;20248;-81
2022/06/07 02:27:04;;;;;;;3.60;3.03;;;16.20;99.90;;;;;;4159579;28;20234;-82
2022/06/07 02:29:09;;;;;;;4.37;3.37;;;16.30;99.90;;;;;;4175518;28;20209;-81
2022/06/07 02:31:11;;;;;;;4.70;3.00;;;16.20;99.90;;;;;;4156828;28;20215;-82
2022/06/07 02:33:15;;;;;;;3.40;2.90;;;16.10;99.90;;;;;;4157488;28;20258;-81
2022/06/07 02:35:17;;;;;;;4.27;2.90;;;16.20;99.90;;;;;;4159592;28;20246;-80
2022/06/07 02:37:20;;;;;;;3.40;2.80;;;16.10;99.90;;;;;;4157387;28;20236;-81
2022/06/07 02:39:22;;;;;;;5.07;2.77;;;16.10;99.90;;;;;;4156068;28;20305;-80
2022/06/07 02:41:27;;;;;;;5.53;3.60;;;16.10;99.90;;;;;;4171885;28;20221;-80
2022/06/07 02:43:30;;;;;;;4.63;3.33;;;16.10;99.90;;;;;;4173628;28;20712;-80
2022/06/07 02:45:33;;;;;;;5.90;3.37;;;16.10;99.90;;;;;;4158296;28;20230;-82
2022/06/07 02:47:35;;;;;;;4.90;3.97;;;16.10;99.90;;;;;;4173940;28;20637;-83
2022/06/07 02:49:37;;;;;;;6.77;4.10;;;16.10;99.90;;;;;;4158102;28;20219;-83
2022/06/07 02:51:39;;;;;;;5.90;4.53;;;16.10;99.90;;;;;;4159827;28;20223;-83
2022/06/07 02:53:41;;;;;;;6.00;4.00;;;16.00;99.90;;;;;;4179487;28;20233;-82
2022/06/07 02:55:43;;;;;;;5.97;4.53;;;16.00;99.90;;;;;;4160311;28;20630;-82
2022/06/07 02:57:45;;;;;;;5.83;4.17;;;16.10;99.90;;;;;;4159513;28;20365;-81
2022/06/07 02:59:48;;;;;;;5.17;3.80;;;16.00;99.90;;;;;;4177858;28;20220;-81
2022/06/07 03:01:51;;;;;;;6.67;3.73;;;16.00;99.90;;;;;;4176397;28;20297;-82
2022/06/07 03:03:53;;;;;;;5.27;3.73;;;16.00;99.90;;;;;;4178576;28;20671;-81
2022/06/07 03:05:55;;;;;;;7.83;3.80;;;16.00;99.90;;;;;;4160220;28;20203;-81
2022/06/07 03:07:57;;;;;;;7.53;4.13;;;15.90;99.90;;;;;;4159224;28;20323;-82
2022/06/07 03:09:59;;;;;;;5.83;4.40;;;15.90;99.90;;;;;;4160359;28;20654;-82
2022/06/07 03:12:02;;;;;;;5.77;3.80;;;15.90;99.90;;;;;;4159639;28;20218;-82
2022/06/07 03:14:05;;;;;;;6.77;3.90;;;15.90;99.90;;;;;;4177792;28;20617;-82
2022/06/07 03:16:09;;;;;;;6.70;3.97;;;15.90;99.90;;;;;;4176811;28;20225;-83
2022/06/07 03:18:11;;;;;;;5.73;4.00;;;15.90;99.90;;;;;;4160635;28;20326;-83
2022/06/07 03:20:14;;;;;;;6.33;3.83;;;15.90;99.90;;;;;;4158086;28;20685;-82
2022/06/07 03:22:16;;;;;;;5.73;4.07;;;15.90;99.90;;;;;;4160949;28;20620;-84
2022/06/07 03:24:18;;;;;;;6.43;4.23;;;15.90;99.90;;;;;;4176333;28;20236;-81
2022/06/07 03:26:20;;;;;;;5.43;4.20;;;15.90;99.90;;;;;;4160514;28;20581;-81
2022/06/07 03:28:22;;;;;;;6.10;3.97;;;15.90;99.90;;;;;;4160504;28;20281;-81
2022/06/07 03:30:24;;;;;;;5.87;3.93;;;15.80;99.90;;;;;;4160679;28;21459;-81
2022/06/07 03:32:27;;;;;;;6.23;4.10;;;15.80;99.90;;;;;;4158856;28;20626;-82
2022/06/07 03:34:29;;;;;;;5.93;4.10;;;15.80;99.90;;;;;;4161482;28;20302;-82
2022/06/07 03:36:31;;;;;;;4.87;3.93;;;15.80;99.90;;;;;;4179168;28;20615;-81
2022/06/07 03:38:33;;;;;;;10.27;4.00;;;15.80;99.90;;;;;;4182053;28;20231;-82
2022/06/07 03:40:44;;;;;;;4.93;3.80;;;15.80;99.90;;;;;;4165438;28;20693;-82
2022/06/07 03:42:46;;;;;;;5.90;4.10;;;15.80;99.90;;;;;;4165693;28;21164;-81
2022/06/07 03:44:50;;;;;;;7.87;4.10;;;15.90;99.90;;;;;;4184056;28;20206;-81
2022/06/07 03:46:53;;;;;;;4.63;3.67;;;15.90;99.90;;;;;;4183145;28;20205;-81
2022/06/07 03:48:57;;;;;;;5.60;4.37;;;15.90;99.90;;;;;;4163135;28;20797;-81
2022/06/07 03:50:59;;;;;;;5.50;3.93;;;15.80;99.90;;;;;;4175710;28;20790;-83
2022/06/07 03:53:01;;;;;;;7.93;4.17;;;15.80;99.90;;;;;;4156687;28;20214;-81
2022/06/07 03:55:04;;;;;;;7.37;4.13;;;15.80;99.90;;;;;;4181700;28;20253;-82
2022/06/07 03:57:07;;;;;;;5.37;4.10;;;15.80;99.90;;;;;;4183490;28;20620;-82
2022/06/07 03:59:09;;;;;;;6.13;4.57;;;15.80;99.90;;;;;;4167541;28;20283;-82
2022/06/07 04:01:15;;;;;;;6.13;4.17;;;15.80;99.90;;;;;;4169909;28;20264;-82
2022/06/07 04:03:16;;;;;;;5.07;3.80;;;15.80;99.90;;;;;;4187238;28;20612;-82
2022/06/07 04:05:20;;;;;;;5.67;4.30;;;15.80;99.90;;;;;;4166137;28;20292;-81
2022/06/07 04:09:41;;;;;;;6.63;4.03;;;15.70;99.90;;;;;;4181937;28;20246;-81
2022/06/07 04:11:43;;;;;;;5.30;4.27;;;15.70;99.90;;;;;;4162122;28;20206;-81
2022/06/07 04:13:45;;;;;;;5.87;4.13;;;15.70;99.90;;;;;;4161594;28;20241;-81
2022/06/07 04:15:47;;;;;;;7.33;4.13;;;15.70;99.90;;;;;;4165375;28;20247;-81
2022/06/07 04:17:50;;;;;;;5.13;3.70;;;15.70;99.90;;;;;;4181338;28;20292;-81
2022/06/07 04:19:52;;;;;;;8.50;4.70;;;15.70;99.90;;;;;;4180604;28;20209;-81
2022/06/07 04:21:55;;;;;;;6.13;4.00;;;15.70;99.90;;;;;;4164676;28;20225;-81
2022/06/07 04:23:57;;;;;;;7.67;3.93;;;15.70;99.90;;;;;;4165058;28;20638;-81
2022/06/07 04:26:06;;;;;;;6.57;4.27;;;15.70;99.90;;;;;;4181288;28;20264;-80
2022/06/07 04:28:08;;;;;;;6.13;3.93;;;15.70;99.90;;;;;;4162259;28;20229;-83
2022/06/07 04:30:12;;;;;;;5.40;4.07;;;15.70;99.90;;;;;;4179304;28;20213;-83
2022/06/07 04:32:16;;;;;;;5.23;3.63;;;15.70;99.90;;;;;;4181158;28;20271;-83
2022/06/07 04:34:19;;;;;;;6.50;3.80;;;15.70;99.90;;;;;;4163031;28;20220;-83
2022/06/07 04:36:25;;;;;;;5.90;3.60;;;15.80;99.90;;;;;;4162594;28;20249;-83
2022/06/07 04:38:28;;;;;;;6.93;3.73;;;15.80;99.90;;;;;;4162863;28;20261;-83
2022/06/07 04:40:30;;;;;;;6.70;3.90;;;15.80;99.90;;;;;;4163677;28;20213;-83
2022/06/07 04:42:32;;;;;;;4.77;3.87;;;15.80;99.90;;;;;;4164174;28;20277;-83
2022/06/07 04:44:34;;;;;;;5.77;3.60;;;15.80;99.90;;;;;;4162175;28;20264;-83
2022/06/07 04:46:36;;;;;;;6.93;3.70;;;15.80;99.90;;;;;;4159858;28;20244;-83
2022/06/07 04:48:39;;;;;;;7.47;3.90;;;15.90;99.90;;;;;;4160241;28;20236;-83
2022/06/07 04:50:41;;;;;;;5.30;3.67;;;15.90;99.90;;;;;;4150302;28;20272;-84
2022/06/07 04:52:43;;;;;;;4.10;3.23;;;15.90;99.90;;;;;;4177420;28;20750;-83
2022/06/07 04:54:46;;;;;;;7.07;4.13;;;15.90;99.90;;;;;;4160449;28;20246;-84
2022/06/07 04:56:48;;;;;;;5.03;3.57;;;16.00;99.90;;;;;;4173627;28;20329;-84
2022/06/07 04:58:50;;;;;;;6.43;4.17;;;16.00;99.90;;;;;;4173972;28;20293;-83
2022/06/07 05:00:54;;;;;;;8.33;3.57;;;16.10;99.90;;;;;;4160487;28;20683;-83
2022/06/07 05:02:56;;;;;;;6.63;3.97;;;16.00;99.90;;;;;;4164979;28;20215;-84
2022/06/07 05:04:58;;;;;;;5.17;3.57;;;16.10;99.90;;;;;;4160056;28;20222;-84
2022/06/07 05:06:59;;;;;;;5.47;3.67;;;16.10;99.90;;;;;;4176641;28;20230;-83
2022/06/07 05:09:04;;;;;;;7.43;3.57;;;16.10;99.90;;;;;;4176266;28;20679;-83
2022/06/07 05:11:09;;;;;;;5.83;3.77;;;16.10;99.90;;;;;;4177614;28;20588;-84
2022/06/07 05:13:11;;;;;;;6.77;3.60;;;16.20;99.90;;;;;;4160406;28;20214;-81
2022/06/07 05:15:13;;;;;;;8.00;3.93;;;16.20;99.90;;;;;;4180157;28;20206;-80
2022/06/07 05:17:15;;;;;;;6.10;4.00;;;16.20;99.90;;;;;;4178505;28;20225;-80
2022/06/07 05:19:20;;;;;;;6.90;3.10;;;16.30;99.90;;;;;;4181445;28;20240;-80
2022/06/07 05:21:24;;;;;;;5.30;3.73;;;16.30;99.90;;;;;;4183465;28;20641;-81
2022/06/07 05:23:26;;;;;;;6.37;3.70;;;16.40;99.90;;;;;;4166753;28;20237;-81
2022/06/07 05:25:28;;;;;;;5.03;3.40;;;16.40;99.90;;;;;;4182231;28;20202;-81
2022/06/07 05:27:38;;;;;;;5.40;2.87;;;16.50;99.90;;;;;;4163793;28;20239;-81
2022/06/07 05:29:47;;;;;;;5.70;2.80;;;16.50;99.90;;;;;;4177874;28;20210;-81
2022/06/07 05:31:49;;;;;;;4.00;2.40;;;16.60;99.90;;;;;;4177733;28;20230;-81
2022/06/07 05:33:51;;;;;;;3.43;2.70;;;16.60;99.90;;;;;;4178246;28;20211;-81
2022/06/07 05:35:53;;;;;;;5.37;2.90;;;16.70;99.90;;;;;;4170796;28;20222;-81
2022/06/07 05:37:56;;;;;;;3.80;2.60;;;16.70;99.90;;;;;;4157031;28;20707;-82
2022/06/07 05:39:58;;;;;;;3.77;2.80;;;16.80;99.90;;;;;;4173412;28;20694;-81
2022/06/07 05:42:00;;;;;;;3.97;2.80;;;16.80;99.90;;;;;;4174441;28;20687;-81
2022/06/07 05:44:06;;;;;;;5.63;3.00;;;16.80;99.90;;;;;;4172545;28;20206;-81
2022/06/07 05:46:09;;;;;;;5.40;2.90;;;16.90;99.90;;;;;;4157023;28;20215;-81
2022/06/07 05:48:11;;;;;;;4.53;2.40;;;16.90;99.90;;;;;;4173419;28;20299;-81
2022/06/07 05:50:13;;;;;;;3.17;2.57;;;17.00;99.90;;;;;;4172492;28;20238;-81
2022/06/07 05:52:15;;;;;;;5.83;2.53;;;17.00;99.90;;;;;;4155073;28;20249;-81
2022/06/07 05:54:17;;;;;;;3.70;2.57;;;17.00;99.90;;;;;;4155315;28;20746;-81
2022/06/07 05:56:19;;;;;;;4.73;2.20;;;17.00;99.90;;;;;;4170756;28;20570;-81
2022/06/07 05:58:21;;;;;;;3.40;2.30;;;17.00;99.90;;;;;;4172582;28;20234;-81
2022/06/07 06:00:25;;;;;;;3.03;2.20;;;17.00;99.90;;;;;;4154669;28;20215;-81
2022/06/07 06:02:28;;;;;;;6.27;2.30;;;17.00;99.90;;;;;;4155407;28;20233;-81
2022/06/07 06:04:30;;;;;;;5.27;2.40;;;17.00;99.90;;;;;;4173449;28;20207;-81
2022/06/07 06:06:32;;;;;;;3.93;2.47;;;16.90;99.90;;;;;;4173713;28;20207;-81
2022/06/07 06:11:03;;;;;;;6.10;2.47;;;16.80;99.90;;;;;;4167288;28;20304;-81
2022/06/07 06:13:06;;;;;;;4.37;2.20;;;16.80;99.90;;;;;;4172280;28;20248;-81
2022/06/07 06:15:09;;;;;;;2.37;1.83;;;16.80;99.90;;;;;;4156567;28;20250;-82
2022/06/07 06:17:13;;;;;;;4.53;2.07;;;16.80;99.90;;;;;;4173111;28;20234;-81
2022/06/07 06:19:15;;;;;;;3.93;2.70;;;16.90;99.90;;;;;;4173860;28;20216;-81
2022/06/07 06:21:18;;;;;;;4.93;2.23;;;17.00;99.90;;;;;;4154146;28;20242;-81
2022/06/07 06:23:23;;;;;;;6.83;2.53;;;16.90;99.90;;;;;;4173508;28;20508;-81
2022/06/07 06:25:25;;;;;;;3.63;2.40;;;16.90;99.90;;;;;;4171336;28;20237;-81
2022/06/07 06:27:29;;;;;;;3.53;2.50;;;16.90;99.90;;;;;;4169823;28;20218;-81
2022/06/07 06:29:36;;;;;;;4.03;2.70;;;16.90;99.90;;;;;;4169489;28;20214;-81
2022/06/07 06:31:39;;;;;;;5.50;2.87;;;16.90;99.90;;;;;;4168760;28;20233;-81
2022/06/07 06:33:45;;;;;;;4.97;2.47;;;16.90;99.90;;;;;;4169618;28;20207;-80
2022/06/07 06:35:48;;;;;;;5.33;2.93;;;16.90;99.90;;;;;;4157502;28;20203;-80
2022/06/07 06:37:50;;;;;;;6.87;3.00;;;16.90;99.90;;;;;;4169269;28;20495;-80
2022/06/07 06:39:52;;;;;;;5.23;2.67;;;16.90;99.90;;;;;;4170192;28;20218;-81
2022/06/07 06:41:54;;;;;;;6.43;2.97;;;16.90;99.90;;;;;;4153443;28;20788;-80
2022/06/07 06:43:57;;;;;;;7.00;2.90;;;16.90;99.90;;;;;;4170554;28;20295;-80
2022/06/07 06:46:04;;;;;;;10.40;3.03;;;16.90;99.90;;;;;;4170006;28;20472;-80
2022/06/07 06:48:07;;;;;;;5.43;2.67;;;16.90;99.90;;;;;;4170057;28;20289;-81
2022/06/07 06:50:11;;;;;;;4.37;2.70;;;17.00;99.90;;;;;;4170081;28;20206;-80
2022/06/07 06:52:15;;;;;;;7.03;2.60;;;17.00;99.90;;;;;;4159202;28;20265;-81
2022/06/07 06:54:19;;;;;;;4.80;2.40;;;17.00;99.90;;;;;;4171073;28;20276;-80
2022/06/07 06:56:23;;;;;;;5.07;2.53;;;17.10;99.90;;;;;;4169714;28;20230;-81
2022/06/07 06:58:25;;;;;;;3.50;2.50;;;17.20;99.90;;;;;;4172207;28;20332;-80
2022/06/07 07:00:27;;;;;;;6.17;2.30;;;17.30;99.90;;;;;;4171700;28;20233;-81
2022/06/07 07:02:29;;;;;;;4.40;2.30;;;17.40;99.90;;;;;;4172798;28;20241;-80
2022/06/07 07:04:31;;;;;;;4.77;2.30;;;17.50;99.90;;;;;;4172286;28;20759;-81
2022/06/07 07:06:34;;;;;;;3.57;2.20;;;17.50;99.90;;;;;;4171399;28;20519;-80
2022/06/07 07:08:38;;;;;;;3.23;2.27;;;17.60;99.90;;;;;;4171739;28;20277;-81
2022/06/07 07:10:40;;;;;;;4.20;2.33;;;17.60;99.90;;;;;;4172214;28;20198;-80
2022/06/07 07:12:42;;;;;;;4.13;2.10;;;17.70;99.90;;;;;;4173017;28;20237;-80
2022/06/07 07:14:44;;;;;;;3.37;1.60;;;17.80;99.90;;;;;;4156781;28;20736;-80
2022/06/07 07:16:49;;;;;;;2.03;1.40;;;17.80;99.90;;;;;;4173576;28;20222;-80
2022/06/07 07:18:52;;;;;;;2.80;1.37;;;17.80;99.90;;;;;;4174147;28;20215;-80
2022/06/07 07:20:54;;;;;;;2.03;1.30;;;17.90;99.90;;;;;;4157469;28;20439;-80
2022/06/07 07:22:57;;;;;;;2.33;1.80;;;18.00;99.90;;;;;;4175674;28;20211;-80
2022/06/07 07:24:59;;;;;;;3.37;1.97;;;18.10;99.90;;;;;;4156953;28;20529;-80
2022/06/07 07:27:01;;;;;;;2.57;1.63;;;18.20;99.90;;;;;;4175189;28;20305;-80
2022/06/07 07:29:04;;;;;;;3.30;1.70;;;18.30;99.90;;;;;;4157337;28;20209;-80
2022/06/07 07:31:08;;;;;;;5.17;1.50;;;18.40;99.90;;;;;;4175579;28;20210;-81
2022/06/07 07:33:10;;;;;;;3.30;1.60;;;18.50;99.90;;;;;;4172051;28;20203;-80
2022/06/07 07:35:13;;;;;;;6.60;2.50;;;18.60;99.90;;;;;;4157559;28;20716;-80
2022/06/07 07:37:14;;;;;;;3.50;1.70;;;18.60;99.90;;;;;;4156967;28;20685;-80
2022/06/07 07:39:18;;;;;;;5.67;1.93;;;18.70;99.90;;;;;;4157765;28;20755;-80
2022/06/07 07:41:22;;;;;;;4.13;1.60;;;18.90;99.90;;;;;;4156910;28;20207;-81
2022/06/07 07:43:24;;;;;;;5.47;1.57;;;18.80;99.90;;;;;;4157919;28;20212;-80
2022/06/07 07:45:27;;;;;;;1.93;1.40;;;18.90;99.90;;;;;;4158495;28;20265;-80
2022/06/07 07:47:29;;;;;;;3.50;1.80;;;18.90;99.90;;;;;;4174057;28;20637;-80
2022/06/07 07:49:32;;;;;;;1.87;1.43;;;19.00;99.90;;;;;;4187020;22;20232;-82
2022/06/07 07:51:36;;;;;;;3.63;1.70;;;19.10;99.90;;;;;;4178392;28;20233;-82
2022/06/07 07:53:38;;;;;;;3.10;1.80;;;19.20;99.90;;;;;;4181721;28;20208;-82
2022/06/07 07:55:45;;;;;;;4.07;1.50;;;19.30;99.90;;;;;;4166308;28;20214;-82
2022/06/07 07:57:47;;;;;;;1.67;1.33;;;19.40;99.90;;;;;;4155197;28;20241;-82
2022/06/07 07:59:49;;;;;;;3.50;1.63;;;19.50;99.90;;;;;;4151440;28;20229;-81
2022/06/07 08:01:52;;;;;;;2.33;1.37;;;19.60;99.90;;;;;;4169994;28;20212;-81
2022/06/07 08:03:55;;;;;;;3.27;1.43;;;19.70;99.90;;;;;;4165205;28;20226;-82
2022/06/07 08:05:57;;;;;;;2.67;1.60;;;19.80;99.90;;;;;;4163573;28;20600;-81
2022/06/07 08:07:59;;;;;;;3.23;1.43;;;20.00;99.80;;;;;;4155356;28;20590;-81
2022/06/07 08:10:02;;;;;;;2.50;1.50;;;20.10;99.40;;;;;;4147688;28;20633;-81
2022/06/07 08:12:06;;;;;;;3.60;1.63;;;20.20;99.70;;;;;;4163849;28;20207;-82
2022/06/07 08:14:11;;;;;;;4.13;1.50;;;20.30;98.00;;;;;;4164389;28;20243;-81
2022/06/07 08:16:13;;;;;;;5.17;1.57;;;20.30;96.10;;;;;;4158055;28;20203;-81
2022/06/07 08:18:15;;;;;;;1.80;1.40;;;20.40;96.20;;;;;;4160042;28;20611;-81
2022/06/07 08:20:17;;;;;;;2.63;1.30;;;20.50;95.80;;;;;;4168887;28;20262;-81
2022/06/07 08:22:20;;;;;;;1.77;1.33;;;20.50;95.40;;;;;;4158436;28;20217;-81
2022/06/07 08:24:22;;;;;;;3.57;1.50;;;20.60;92.90;;;;;;4168561;28;20293;-81
2022/06/07 08:26:27;;;;;;;2.00;1.33;;;20.60;91.40;;;;;;4171621;28;20210;-82
2022/06/07 08:28:31;;;;;;;2.13;1.37;;;20.70;90.60;;;;;;4159575;28;20668;-82
2022/06/07 08:30:34;;;;;;;2.93;1.10;;;20.80;91.10;;;;;;4157816;28;20272;-81
2022/06/07 08:32:38;;;;;;;3.93;1.40;;;20.80;91.80;;;;;;4166399;28;20215;-81
2022/06/07 08:39:24;;;;;;;3.70;1.37;;;20.90;90.60;;;;;;4171152;28;20226;-81
2022/06/07 08:41:30;;;;;;;2.50;1.60;;;21.00;91.20;;;;;;4157016;28;20211;-82
2022/06/07 08:43:34;;;;;;;3.03;1.70;;;21.00;90.30;;;;;;4173581;28;20214;-82
2022/06/07 08:45:40;;;;;;;4.67;1.60;;;21.00;90.40;;;;;;4155793;28;20215;-82
2022/06/07 08:47:52;;;;;;;2.53;1.20;;;21.10;91.20;;;;;;4163908;28;20687;-81
2022/06/07 08:49:55;;;;;;;5.20;1.47;;;21.10;91.70;;;;;;4158193;28;20330;-81
2022/06/07 08:52:03;;;;;;;1.87;1.20;;;21.10;91.10;;;;;;4152272;28;20219;-82
2022/06/07 08:54:17;;;;;;;4.00;1.47;;;21.10;91.30;;;;;;4156230;28;20206;-81
2022/06/07 08:56:21;;;;;;;3.43;1.67;;;21.10;86.40;;;;;;4162366;28;20741;-83
2022/06/07 08:58:29;;;;;;;6.20;1.20;;;21.10;86.90;;;;;;4159506;28;20199;-79
2022/06/07 09:00:35;;;;;;;2.73;1.67;;;21.00;87.50;;;;;;4161299;28;20237;-81
2022/06/07 09:03:04;;;;;;;5.40;1.50;;;21.00;89.90;;;;;;4163444;28;20202;-82
2022/06/07 09:05:10;;;;;;;5.23;1.40;;;20.90;90.60;;;;;;4156885;28;20269;-82
2022/06/07 09:07:16;;;;;;;4.47;1.77;;;20.90;91.70;;;;;;4153626;28;20206;-82
2022/06/07 09:09:20;;;;;;;2.60;1.40;;;20.90;91.40;;;;;;4161600;28;20723;-81
2022/06/07 09:13:57;;;;;;;3.23;1.40;;;20.90;89.80;;;;;;4137819;28;20206;-82
2022/06/07 09:16:01;;;;;;;1.87;1.20;;;21.00;88.10;;;;;;4138606;28;20269;-81
2022/06/07 09:18:10;;;;;;;3.23;1.23;;;21.00;87.50;;;;;;4154124;28;20313;-84
2022/06/07 09:20:18;;;;;;;6.70;2.50;;;21.10;86.50;;;;;;4148351;28;20759;-83
2022/06/07 09:22:25;;;;;;;3.57;1.43;;;21.20;85.30;;;;;;4156345;28;20238;-82
2022/06/07 09:24:33;;;;;;;3.00;1.17;;;21.30;77.90;;;;;;4145853;28;20306;-81
2022/06/07 09:26:38;;;;;;;2.83;1.20;;;21.30;72.40;;;;;;4148588;28;20353;-82
2022/06/07 09:28:40;;;;;;;2.37;1.20;;;21.40;71.20;;;;;;4148130;28;20660;-83
2022/06/07 09:30:45;;;;;;;3.07;1.27;;;21.50;70.30;;;;;;4147919;28;20708;-83
2022/06/07 09:32:50;;;;;;;3.37;1.27;;;21.50;72.20;;;;;;4150385;28;20302;-82
2022/06/07 09:34:56;;;;;;;3.83;1.30;;;21.60;71.60;;;;;;4163354;28;20215;-83
2022/06/07 09:37:04;;;;;;;3.23;0.93;;;21.60;67.40;;;;;;4162448;28;20252;-83
2022/06/07 09:39:16;;;;;;;2.87;1.20;;;21.60;65.20;;;;;;4167054;28;20623;-83
2022/06/07 09:41:37;;;;;;;1.90;1.20;;;21.60;64.40;;;;;;4168189;28;20719;-83
2022/06/07 09:43:43;;;;;;;1.97;0.90;;;21.60;61.00;;;;;;4154809;28;20218;-82
2022/06/07 09:45:55;;;;;;;2.40;0.93;;;21.60;59.20;;;;;;4163699;28;20214;-82
2022/06/07 09:48:18;;;;;;;1.53;1.07;;;21.50;59.40;;;;;;4146337;28;20216;-82
2022/06/07 09:50:26;;;;;;;1.93;1.03;;;21.50;60.70;;;;;;4143746;28;20216;-82
2022/06/07 09:52:31;;;;;;;1.10;1.00;;;21.50;62.60;;;;;;4159221;28;20218;-83
2022/06/07 09:54:38;;;;;;;2.37;1.20;;;21.40;61.90;;;;;;4166684;28;20217;-83
2022/06/07 09:56:48;;;;;;;4.13;1.10;;;21.30;63.50;;;;;;4151854;28;20326;-82
2022/06/07 09:59:04;;;;;;;4.40;1.40;;;21.30;67.50;;;;;;4153359;28;20366;-83
2022/06/07 10:01:16;;;;;;;1.73;1.20;;;21.30;69.50;;;;;;4146286;28;20200;-81
2022/06/07 10:03:38;;;;;;;2.50;1.10;;;21.30;68.30;;;;;;4148060;28;20643;-82
2022/06/07 10:05:44;;;;;;;2.33;1.20;;;21.40;67.80;;;;;;4148604;28;20232;-82
2022/06/07 10:07:52;;;;;;;2.90;1.03;;;21.50;68.00;;;;;;4152534;28;20211;-83
2022/06/07 10:10:05;;;;;;;2.17;1.00;;;21.60;66.70;;;;;;4154674;28;20257;-83
2022/06/07 10:12:17;;;;;;;3.13;1.40;;;21.60;65.80;;;;;;4155428;28;20238;-82
2022/06/07 10:14:30;;;;;;;2.20;1.20;;;21.70;64.90;;;;;;4151135;28;20429;-82
2022/06/07 10:16:44;;;;;;;1.77;1.00;;;21.80;61.80;;;;;;4145674;28;20207;-82
2022/06/07 10:18:55;;;;;;;3.60;1.20;;;21.80;60.10;;;;;;4159458;28;20269;-82
2022/06/07 10:21:30;;;;;;;2.30;0.80;;;21.90;57.10;;;;;;4150749;28;20249;-82
2022/06/07 10:23:52;;;;;;;5.80;1.07;;;22.00;55.30;;;;;;4151157;28;20706;-83
2022/06/07 10:26:07;;;;;;;3.13;1.17;;;22.00;53.80;;;;;;4165300;28;20307;-82
2022/06/07 10:28:16;;;;;;;1.87;1.00;;;22.20;54.30;;;;;;4153929;28;20216;-82
2022/06/07 10:30:23;;;;;;;1.67;0.87;;;22.30;55.10;;;;;;4151918;28;20677;-82
2022/06/07 10:32:32;;;;;;;3.17;1.10;;;22.40;54.70;;;;;;4154893;28;20218;-82
2022/06/07 10:34:39;;;;;;;2.20;1.10;;;22.40;54.00;;;;;;4157756;28;20246;-82
2022/06/07 10:36:47;;;;;;;1.70;0.97;;;22.50;52.60;;;;;;4155828;28;20225;-82
2022/06/07 10:39:09;;;;;;;1.97;0.70;;;22.60;52.20;;;;;;4153669;28;20266;-83
2022/06/07 10:41:18;;;;;;;2.30;0.90;;;22.60;52.50;;;;;;4159808;28;20268;-83
2022/06/07 10:43:23;;;;;;;1.17;0.97;;;22.70;50.90;;;;;;4163234;28;20263;-83
2022/06/07 10:45:29;;;;;;;5.20;0.90;;;22.70;47.40;;;;;;4164535;28;20229;-83
2022/06/07 10:47:37;;;;;;;0.90;0.80;;;22.60;48.10;;;;;;4155825;28;20783;-83
2022/06/07 10:49:49;;;;;;;1.17;0.80;;;22.60;47.00;;;;;;4160244;28;20237;-83
2022/06/07 10:54:21;;;;;;;1.63;0.73;;;22.70;46.90;;;;;;4163483;28;20586;-83
2022/06/07 10:56:27;;;;;;;3.03;0.80;;;22.90;46.90;;;;;;4154183;28;20249;-82
2022/06/07 10:58:33;;;;;;;3.23;0.87;;;23.10;46.90;;;;;;4155151;28;20707;-82
2022/06/07 11:00:43;;;;;;;1.03;0.70;;;23.10;45.60;;;;;;4155495;28;20241;-82
2022/06/07 11:02:54;;;;;;;2.50;0.90;;;23.20;45.00;;;;;;4146056;28;20221;-82
2022/06/07 11:09:49;;;;;;;2.43;0.90;;;23.60;45.70;;;;;;4143324;28;20227;-81
2022/06/07 11:11:56;;;;;;;3.47;0.90;;;23.80;44.60;;;;;;4159702;28;20759;-83
2022/06/07 11:14:10;;;;;;;2.57;1.17;;;23.90;44.70;;;;;;4174095;28;20670;-83
2022/06/07 11:16:19;;;;;;;1.37;0.90;;;23.80;43.90;;;;;;4157331;28;20240;-82
2022/06/07 11:18:24;;;;;;;1.97;1.00;;;23.70;44.30;;;;;;4155177;28;20230;-82
2022/06/07 11:20:31;;;;;;;3.80;0.90;;;23.60;44.60;;;;;;4153399;28;20230;-82
2022/06/07 11:22:36;;;;;;;2.37;0.80;;;23.50;45.00;;;;;;4150734;28;20227;-82
2022/06/07 11:24:54;;;;;;;2.97;0.90;;;23.50;45.10;;;;;;4171009;28;20214;-82
2022/06/07 11:27:15;;;;;;;2.43;0.80;;;23.40;44.60;;;;;;4153732;28;20202;-82
2022/06/07 11:29:21;;;;;;;2.87;0.80;;;23.50;44.60;;;;;;4148931;28;20229;-82
2022/06/07 11:31:39;;;;;;;3.70;0.73;;;23.60;45.20;;;;;;4144405;28;20374;-83
2022/06/07 11:33:59;;;;;;;1.83;0.87;;;23.90;44.70;;;;;;4144499;28;20241;-83
2022/06/07 11:36:34;;;;;;;6.43;1.00;;;24.20;43.80;;;;;;4171716;28;20717;-82